sensor_id;sensor_type;location;lat;lon;timestamp;P1;durP1;ratioP1;P2;durP2;ratioP2
10212;SDS011;5150;51.400;6.692;2022-11-12T00:02:10;4.05;;;2.78;;
10212;SDS011;5150;51.400;6.692;2022-11-12T00:05:52;4.78;;;2.88;;
10212;SDS011;5150;51.400;6.692;2022-11-12T00:09:33;3.80;;;2.72;;
10212;SDS011;5150;51.400;6.692;2022-11-12T00:13:15;5.65;;;2.70;;
10212;SDS011;5150;51.400;6.692;2022-11-12T00:16:57;3.95;;;2.50;;
10212;SDS011;5150;51.400;6.692;2022-11-12T00:20:40;4.80;;;3.30;;
10212;SDS011;5150;51.400;6.692;2022-11-12T00:24:22;4.50;;;3.60;;
10212;SDS011;5150;51.400;6.692;2022-11-12T00:28:03;3.00;;;2.78;;
10212;SDS011;5150;51.400;6.692;2022-11-12T00:31:47;3.53;;;2.63;;
10212;SDS011;5150;51.400;6.692;2022-11-12T00:35:29;4.75;;;2.80;;
10212;SDS011;5150;51.400;6.692;2022-11-12T00:39:13;4.20;;;2.42;;
10212;SDS011;5150;51.400;6.692;2022-11-12T00:42:54;3.22;;;2.25;;
10212;SDS011;5150;51.400;6.692;2022-11-12T00:46:36;4.80;;;2.08;;
10212;SDS011;5150;51.400;6.692;2022-11-12T00:50:17;3.42;;;2.53;;
10212;SDS011;5150;51.400;6.692;2022-11-12T00:53:59;3.20;;;2.03;;
10212;SDS011;5150;51.400;6.692;2022-11-12T00:57:42;2.88;;;2.20;;
10212;SDS011;5150;51.400;6.692;2022-11-12T01:01:24;3.53;;;2.65;;
10212;SDS011;5150;51.400;6.692;2022-11-12T01:05:06;5.22;;;3.17;;
10212;SDS011;5150;51.400;6.692;2022-11-12T01:08:49;6.07;;;2.75;;
10212;SDS011;5150;51.400;6.692;2022-11-12T01:12:31;3.40;;;2.80;;
10212;SDS011;5150;51.400;6.692;2022-11-12T01:16:14;4.07;;;2.60;;
10212;SDS011;5150;51.400;6.692;2022-11-12T01:19:58;3.90;;;2.90;;
10212;SDS011;5150;51.400;6.692;2022-11-12T01:23:40;2.90;;;2.35;;
10212;SDS011;5150;51.400;6.692;2022-11-12T01:27:22;3.17;;;2.42;;
10212;SDS011;5150;51.400;6.692;2022-11-12T01:31:10;2.70;;;2.30;;
10212;SDS011;5150;51.400;6.692;2022-11-12T01:34:55;2.80;;;2.25;;
10212;SDS011;5150;51.400;6.692;2022-11-12T01:38:37;3.47;;;2.58;;
10212;SDS011;5150;51.400;6.692;2022-11-12T01:42:19;5.85;;;3.08;;
10212;SDS011;5150;51.400;6.692;2022-11-12T01:46:04;2.55;;;2.33;;
10212;SDS011;5150;51.400;6.692;2022-11-12T01:49:48;3.28;;;2.35;;
10212;SDS011;5150;51.400;6.692;2022-11-12T01:53:37;2.97;;;2.25;;
10212;SDS011;5150;51.400;6.692;2022-11-12T01:57:24;2.72;;;2.17;;
10212;SDS011;5150;51.400;6.692;2022-11-12T02:01:13;2.58;;;2.38;;
10212;SDS011;5150;51.400;6.692;2022-11-12T02:04:55;3.53;;;2.63;;
10212;SDS011;5150;51.400;6.692;2022-11-12T02:08:38;2.72;;;2.53;;
10212;SDS011;5150;51.400;6.692;2022-11-12T02:12:20;3.70;;;2.47;;
10212;SDS011;5150;51.400;6.692;2022-11-12T02:16:20;5.18;;;3.45;;
10212;SDS011;5150;51.400;6.692;2022-11-12T02:20:02;2.90;;;2.60;;
10212;SDS011;5150;51.400;6.692;2022-11-12T02:23:45;2.97;;;2.65;;
10212;SDS011;5150;51.400;6.692;2022-11-12T02:27:27;4.18;;;3.30;;
10212;SDS011;5150;51.400;6.692;2022-11-12T02:31:09;3.10;;;2.80;;
10212;SDS011;5150;51.400;6.692;2022-11-12T02:34:50;2.42;;;2.22;;
10212;SDS011;5150;51.400;6.692;2022-11-12T02:38:32;3.25;;;1.90;;
10212;SDS011;5150;51.400;6.692;2022-11-12T02:42:14;4.20;;;2.92;;
10212;SDS011;5150;51.400;6.692;2022-11-12T02:45:56;4.07;;;2.58;;
10212;SDS011;5150;51.400;6.692;2022-11-12T02:49:37;3.53;;;2.40;;
10212;SDS011;5150;51.400;6.692;2022-11-12T02:53:19;4.18;;;2.08;;
10212;SDS011;5150;51.400;6.692;2022-11-12T02:57:00;2.63;;;2.42;;
10212;SDS011;5150;51.400;6.692;2022-11-12T03:00:43;3.03;;;2.45;;
10212;SDS011;5150;51.400;6.692;2022-11-12T03:04:24;5.95;;;2.70;;
10212;SDS011;5150;51.400;6.692;2022-11-12T03:08:07;2.38;;;2.17;;
10212;SDS011;5150;51.400;6.692;2022-11-12T03:11:49;3.05;;;2.65;;
10212;SDS011;5150;51.400;6.692;2022-11-12T03:15:31;3.30;;;2.78;;
10212;SDS011;5150;51.400;6.692;2022-11-12T03:19:14;2.25;;;2.05;;
10212;SDS011;5150;51.400;6.692;2022-11-12T03:22:56;3.88;;;2.55;;
10212;SDS011;5150;51.400;6.692;2022-11-12T03:26:39;2.42;;;2.22;;
10212;SDS011;5150;51.400;6.692;2022-11-12T03:30:20;5.03;;;2.45;;
10212;SDS011;5150;51.400;6.692;2022-11-12T03:34:01;3.10;;;2.35;;
10212;SDS011;5150;51.400;6.692;2022-11-12T03:37:44;2.30;;;2.10;;
10212;SDS011;5150;51.400;6.692;2022-11-12T03:41:26;2.67;;;2.22;;
10212;SDS011;5150;51.400;6.692;2022-11-12T03:45:08;2.65;;;2.45;;
10212;SDS011;5150;51.400;6.692;2022-11-12T03:48:49;3.35;;;2.22;;
10212;SDS011;5150;51.400;6.692;2022-11-12T03:52:31;5.25;;;3.00;;
10212;SDS011;5150;51.400;6.692;2022-11-12T03:56:14;2.65;;;2.28;;
10212;SDS011;5150;51.400;6.692;2022-11-12T03:59:55;3.25;;;2.40;;
10212;SDS011;5150;51.400;6.692;2022-11-12T04:03:37;2.65;;;2.20;;
10212;SDS011;5150;51.400;6.692;2022-11-12T04:07:18;3.85;;;2.67;;
10212;SDS011;5150;51.400;6.692;2022-11-12T04:11:19;2.55;;;2.35;;
10212;SDS011;5150;51.400;6.692;2022-11-12T04:15:01;3.63;;;2.88;;
10212;SDS011;5150;51.400;6.692;2022-11-12T04:18:42;3.60;;;2.67;;
10212;SDS011;5150;51.400;6.692;2022-11-12T04:22:43;3.05;;;2.80;;
10212;SDS011;5150;51.400;6.692;2022-11-12T04:26:26;2.55;;;2.35;;
10212;SDS011;5150;51.400;6.692;2022-11-12T04:30:06;3.03;;;2.60;;
10212;SDS011;5150;51.400;6.692;2022-11-12T04:33:58;3.13;;;2.33;;
10212;SDS011;5150;51.400;6.692;2022-11-12T04:38:00;2.35;;;2.13;;
10212;SDS011;5150;51.400;6.692;2022-11-12T04:41:42;3.38;;;2.40;;
10212;SDS011;5150;51.400;6.692;2022-11-12T04:45:42;2.70;;;2.10;;
10212;SDS011;5150;51.400;6.692;2022-11-12T04:49:25;2.38;;;2.15;;
10212;SDS011;5150;51.400;6.692;2022-11-12T04:53:06;2.45;;;2.25;;
10212;SDS011;5150;51.400;6.692;2022-11-12T04:56:49;2.50;;;1.95;;
10212;SDS011;5150;51.400;6.692;2022-11-12T05:00:31;2.10;;;1.98;;
10212;SDS011;5150;51.400;6.692;2022-11-12T05:04:12;2.60;;;2.40;;
10212;SDS011;5150;51.400;6.692;2022-11-12T05:07:54;2.97;;;2.47;;
10212;SDS011;5150;51.400;6.692;2022-11-12T05:11:39;2.90;;;1.67;;
10212;SDS011;5150;51.400;6.692;2022-11-12T05:15:21;2.67;;;2.30;;
10212;SDS011;5150;51.400;6.692;2022-11-12T05:19:03;2.92;;;2.63;;
10212;SDS011;5150;51.400;6.692;2022-11-12T05:22:45;2.70;;;2.50;;
10212;SDS011;5150;51.400;6.692;2022-11-12T05:26:45;2.13;;;2.03;;
10212;SDS011;5150;51.400;6.692;2022-11-12T05:30:27;2.45;;;2.20;;
10212;SDS011;5150;51.400;6.692;2022-11-12T05:34:09;2.60;;;2.40;;
10212;SDS011;5150;51.400;6.692;2022-11-12T05:37:51;2.55;;;2.20;;
10212;SDS011;5150;51.400;6.692;2022-11-12T05:41:32;3.72;;;2.58;;
10212;SDS011;5150;51.400;6.692;2022-11-12T05:45:35;2.03;;;1.85;;
10212;SDS011;5150;51.400;6.692;2022-11-12T05:49:17;2.20;;;1.83;;
10212;SDS011;5150;51.400;6.692;2022-11-12T05:52:58;2.28;;;2.03;;
10212;SDS011;5150;51.400;6.692;2022-11-12T05:56:39;2.25;;;2.13;;
10212;SDS011;5150;51.400;6.692;2022-11-12T06:00:21;2.33;;;2.13;;
10212;SDS011;5150;51.400;6.692;2022-11-12T06:04:04;2.75;;;2.53;;
10212;SDS011;5150;51.400;6.692;2022-11-12T06:07:46;2.92;;;1.58;;
10212;SDS011;5150;51.400;6.692;2022-11-12T06:11:27;2.88;;;2.67;;
10212;SDS011;5150;51.400;6.692;2022-11-12T06:15:08;2.63;;;2.00;;
10212;SDS011;5150;51.400;6.692;2022-11-12T06:18:50;2.53;;;2.25;;
10212;SDS011;5150;51.400;6.692;2022-11-12T06:22:33;2.58;;;2.38;;
10212;SDS011;5150;51.400;6.692;2022-11-12T06:26:14;2.22;;;2.03;;
10212;SDS011;5150;51.400;6.692;2022-11-12T06:29:56;3.28;;;2.28;;
10212;SDS011;5150;51.400;6.692;2022-11-12T06:33:37;2.47;;;2.28;;
10212;SDS011;5150;51.400;6.692;2022-11-12T06:37:18;2.40;;;2.28;;
10212;SDS011;5150;51.400;6.692;2022-11-12T06:41:02;2.65;;;1.80;;
10212;SDS011;5150;51.400;6.692;2022-11-12T06:44:43;1.83;;;1.73;;
10212;SDS011;5150;51.400;6.692;2022-11-12T06:48:25;2.50;;;2.28;;
10212;SDS011;5150;51.400;6.692;2022-11-12T06:52:07;2.08;;;1.83;;
10212;SDS011;5150;51.400;6.692;2022-11-12T06:56:00;2.42;;;2.17;;
10212;SDS011;5150;51.400;6.692;2022-11-12T06:59:43;3.00;;;2.05;;
10212;SDS011;5150;51.400;6.692;2022-11-12T07:03:25;2.08;;;1.92;;
10212;SDS011;5150;51.400;6.692;2022-11-12T07:07:06;2.25;;;2.05;;
10212;SDS011;5150;51.400;6.692;2022-11-12T07:10:54;2.55;;;2.35;;
10212;SDS011;5150;51.400;6.692;2022-11-12T07:14:37;2.28;;;2.05;;
10212;SDS011;5150;51.400;6.692;2022-11-12T07:18:18;1.83;;;1.65;;
10212;SDS011;5150;51.400;6.692;2022-11-12T07:21:59;2.67;;;1.88;;
10212;SDS011;5150;51.400;6.692;2022-11-12T07:25:41;2.22;;;2.03;;
10212;SDS011;5150;51.400;6.692;2022-11-12T07:29:22;2.42;;;2.22;;
10212;SDS011;5150;51.400;6.692;2022-11-12T07:33:25;2.13;;;1.90;;
10212;SDS011;5150;51.400;6.692;2022-11-12T07:37:08;2.40;;;1.90;;
10212;SDS011;5150;51.400;6.692;2022-11-12T07:40:49;1.52;;;1.42;;
10212;SDS011;5150;51.400;6.692;2022-11-12T07:44:30;1.92;;;1.83;;
10212;SDS011;5150;51.400;6.692;2022-11-12T07:48:11;2.53;;;1.85;;
10212;SDS011;5150;51.400;6.692;2022-11-12T07:51:54;2.40;;;2.20;;
10212;SDS011;5150;51.400;6.692;2022-11-12T07:55:36;3.03;;;2.03;;
10212;SDS011;5150;51.400;6.692;2022-11-12T07:59:17;1.95;;;1.85;;
10212;SDS011;5150;51.400;6.692;2022-11-12T08:02:58;2.80;;;2.13;;
10212;SDS011;5150;51.400;6.692;2022-11-12T08:06:40;2.30;;;2.08;;
10212;SDS011;5150;51.400;6.692;2022-11-12T08:10:24;2.03;;;1.90;;
10212;SDS011;5150;51.400;6.692;2022-11-12T08:14:05;2.55;;;2.35;;
10212;SDS011;5150;51.400;6.692;2022-11-12T08:17:47;2.47;;;2.10;;
10212;SDS011;5150;51.400;6.692;2022-11-12T08:21:29;2.10;;;2.00;;
10212;SDS011;5150;51.400;6.692;2022-11-12T08:25:10;2.20;;;2.00;;
10212;SDS011;5150;51.400;6.692;2022-11-12T08:28:53;2.35;;;2.15;;
10212;SDS011;5150;51.400;6.692;2022-11-12T08:32:34;1.92;;;1.80;;
10212;SDS011;5150;51.400;6.692;2022-11-12T08:36:16;3.33;;;2.00;;
10212;SDS011;5150;51.400;6.692;2022-11-12T08:39:57;2.63;;;2.42;;
10212;SDS011;5150;51.400;6.692;2022-11-12T08:43:39;2.28;;;1.80;;
10212;SDS011;5150;51.400;6.692;2022-11-12T08:47:23;6.32;;;3.15;;
10212;SDS011;5150;51.400;6.692;2022-11-12T08:51:04;2.13;;;2.03;;
10212;SDS011;5150;51.400;6.692;2022-11-12T08:54:46;7.32;;;2.42;;
10212;SDS011;5150;51.400;6.692;2022-11-12T08:58:27;1.92;;;1.80;;
10212;SDS011;5150;51.400;6.692;2022-11-12T09:02:10;2.65;;;2.00;;
10212;SDS011;5150;51.400;6.692;2022-11-12T09:05:54;4.25;;;2.53;;
10212;SDS011;5150;51.400;6.692;2022-11-12T09:09:35;2.67;;;2.47;;
10212;SDS011;5150;51.400;6.692;2022-11-12T09:13:16;3.78;;;1.73;;
10212;SDS011;5150;51.400;6.692;2022-11-12T09:16:58;4.25;;;2.00;;
10212;SDS011;5150;51.400;6.692;2022-11-12T09:20:40;3.75;;;1.92;;
10212;SDS011;5150;51.400;6.692;2022-11-12T09:24:23;4.45;;;2.53;;
10212;SDS011;5150;51.400;6.692;2022-11-12T09:28:06;2.83;;;2.63;;
10212;SDS011;5150;51.400;6.692;2022-11-12T09:31:49;3.38;;;2.20;;
10212;SDS011;5150;51.400;6.692;2022-11-12T09:35:31;2.50;;;2.08;;
10212;SDS011;5150;51.400;6.692;2022-11-12T09:39:13;3.28;;;2.10;;
10212;SDS011;5150;51.400;6.692;2022-11-12T09:42:56;2.65;;;2.45;;
10212;SDS011;5150;51.400;6.692;2022-11-12T09:46:38;5.03;;;2.85;;
10212;SDS011;5150;51.400;6.692;2022-11-12T09:50:25;3.38;;;2.63;;
10212;SDS011;5150;51.400;6.692;2022-11-12T09:54:12;2.35;;;2.20;;
10212;SDS011;5150;51.400;6.692;2022-11-12T09:58:07;2.88;;;2.65;;
10212;SDS011;5150;51.400;6.692;2022-11-12T10:01:53;4.38;;;2.40;;
10212;SDS011;5150;51.400;6.692;2022-11-12T10:05:40;6.05;;;3.10;;
10212;SDS011;5150;51.400;6.692;2022-11-12T10:09:29;5.03;;;2.40;;
10212;SDS011;5150;51.400;6.692;2022-11-12T10:13:22;3.40;;;2.70;;
10212;SDS011;5150;51.400;6.692;2022-11-12T10:17:11;2.53;;;2.15;;
10212;SDS011;5150;51.400;6.692;2022-11-12T10:21:04;2.28;;;1.95;;
10212;SDS011;5150;51.400;6.692;2022-11-12T10:24:52;2.28;;;2.17;;
10212;SDS011;5150;51.400;6.692;2022-11-12T10:28:39;3.78;;;2.03;;
10212;SDS011;5150;51.400;6.692;2022-11-12T10:32:24;3.05;;;2.20;;
10212;SDS011;5150;51.400;6.692;2022-11-12T10:36:14;4.25;;;2.20;;
10212;SDS011;5150;51.400;6.692;2022-11-12T10:40:12;3.47;;;2.38;;
10212;SDS011;5150;51.400;6.692;2022-11-12T10:44:12;2.40;;;2.08;;
10212;SDS011;5150;51.400;6.692;2022-11-12T10:47:54;5.18;;;2.50;;
10212;SDS011;5150;51.400;6.692;2022-11-12T10:51:36;2.50;;;2.30;;
10212;SDS011;5150;51.400;6.692;2022-11-12T10:55:19;5.15;;;2.05;;
10212;SDS011;5150;51.400;6.692;2022-11-12T10:59:09;1.90;;;1.80;;
10212;SDS011;5150;51.400;6.692;2022-11-12T11:02:54;2.72;;;2.53;;
10212;SDS011;5150;51.400;6.692;2022-11-12T11:06:36;2.33;;;2.05;;
10212;SDS011;5150;51.400;6.692;2022-11-12T11:10:21;2.72;;;2.05;;
10212;SDS011;5150;51.400;6.692;2022-11-12T11:14:22;6.63;;;2.33;;
10212;SDS011;5150;51.400;6.692;2022-11-12T11:18:09;3.22;;;1.90;;
10212;SDS011;5150;51.400;6.692;2022-11-12T11:21:56;3.28;;;2.50;;
10212;SDS011;5150;51.400;6.692;2022-11-12T11:25:53;1.98;;;1.88;;
10212;SDS011;5150;51.400;6.692;2022-11-12T11:29:48;2.78;;;2.13;;
10212;SDS011;5150;51.400;6.692;2022-11-12T11:33:40;2.40;;;1.90;;
10212;SDS011;5150;51.400;6.692;2022-11-12T11:37:28;5.57;;;2.67;;
10212;SDS011;5150;51.400;6.692;2022-11-12T11:41:23;2.90;;;2.15;;
10212;SDS011;5150;51.400;6.692;2022-11-12T11:45:17;4.85;;;2.30;;
10212;SDS011;5150;51.400;6.692;2022-11-12T11:49:12;4.30;;;2.58;;
10212;SDS011;5150;51.400;6.692;2022-11-12T11:53:11;2.60;;;2.10;;
10212;SDS011;5150;51.400;6.692;2022-11-12T11:57:01;2.38;;;2.17;;
10212;SDS011;5150;51.400;6.692;2022-11-12T12:00:54;4.70;;;2.22;;
10212;SDS011;5150;51.400;6.692;2022-11-12T12:04:44;5.93;;;2.08;;
10212;SDS011;5150;51.400;6.692;2022-11-12T12:08:32;4.60;;;2.95;;
10212;SDS011;5150;51.400;6.692;2022-11-12T12:12:30;2.28;;;2.00;;
10212;SDS011;5150;51.400;6.692;2022-11-12T12:16:29;4.40;;;2.15;;
10212;SDS011;5150;51.400;6.692;2022-11-12T12:20:17;2.47;;;2.28;;
10212;SDS011;5150;51.400;6.692;2022-11-12T12:24:03;2.28;;;2.00;;
10212;SDS011;5150;51.400;6.692;2022-11-12T12:27:53;5.15;;;2.22;;
10212;SDS011;5150;51.400;6.692;2022-11-12T12:31:45;2.40;;;1.65;;
10212;SDS011;5150;51.400;6.692;2022-11-12T12:35:32;5.10;;;2.17;;
10212;SDS011;5150;51.400;6.692;2022-11-12T12:39:17;2.10;;;1.90;;
10212;SDS011;5150;51.400;6.692;2022-11-12T12:43:01;3.15;;;1.77;;
10212;SDS011;5150;51.400;6.692;2022-11-12T12:46:56;4.25;;;1.88;;
10212;SDS011;5150;51.400;6.692;2022-11-12T12:50:40;3.75;;;1.83;;
10212;SDS011;5150;51.400;6.692;2022-11-12T12:58:40;3.70;;;1.90;;
10212;SDS011;5150;51.400;6.692;2022-11-12T13:02:24;2.72;;;1.92;;
10212;SDS011;5150;51.400;6.692;2022-11-12T13:06:06;3.67;;;1.83;;
10212;SDS011;5150;51.400;6.692;2022-11-12T13:10:06;4.07;;;1.67;;
10212;SDS011;5150;51.400;6.692;2022-11-12T13:36:25;1.75;;;1.65;;
10212;SDS011;5150;51.400;6.692;2022-11-12T13:40:08;2.80;;;2.00;;
10212;SDS011;5150;51.400;6.692;2022-11-12T13:43:53;10.52;;;2.70;;
10212;SDS011;5150;51.400;6.692;2022-11-12T13:47:36;2.92;;;1.80;;
10212;SDS011;5150;51.400;6.692;2022-11-12T13:51:19;3.53;;;1.67;;
10212;SDS011;5150;51.400;6.692;2022-11-12T13:55:11;4.22;;;2.05;;
10212;SDS011;5150;51.400;6.692;2022-11-12T13:58:57;1.60;;;1.50;;
10212;SDS011;5150;51.400;6.692;2022-11-12T14:02:50;2.90;;;2.25;;
10212;SDS011;5150;51.400;6.692;2022-11-12T14:06:34;5.57;;;1.95;;
10212;SDS011;5150;51.400;6.692;2022-11-12T14:10:23;1.83;;;1.73;;
10212;SDS011;5150;51.400;6.692;2022-11-12T14:14:17;2.20;;;1.98;;
10212;SDS011;5150;51.400;6.692;2022-11-12T14:18:06;2.60;;;2.20;;
10212;SDS011;5150;51.400;6.692;2022-11-12T14:21:59;2.97;;;1.90;;
10212;SDS011;5150;51.400;6.692;2022-11-12T14:25:46;1.70;;;1.60;;
10212;SDS011;5150;51.400;6.692;2022-11-12T14:29:28;2.25;;;2.03;;
10212;SDS011;5150;51.400;6.692;2022-11-12T14:33:17;3.33;;;2.00;;
10212;SDS011;5150;51.400;6.692;2022-11-12T14:37:00;2.75;;;1.60;;
10212;SDS011;5150;51.400;6.692;2022-11-12T14:40:43;1.70;;;1.60;;
10212;SDS011;5150;51.400;6.692;2022-11-12T14:44:32;2.63;;;2.05;;
10212;SDS011;5150;51.400;6.692;2022-11-12T14:48:15;4.03;;;1.73;;
10212;SDS011;5150;51.400;6.692;2022-11-12T14:51:59;4.28;;;2.58;;
10212;SDS011;5150;51.400;6.692;2022-11-12T14:55:48;4.70;;;2.10;;
10212;SDS011;5150;51.400;6.692;2022-11-12T14:59:34;3.20;;;1.75;;
10212;SDS011;5150;51.400;6.692;2022-11-12T15:03:16;4.35;;;2.10;;
10212;SDS011;5150;51.400;6.692;2022-11-12T15:06:59;7.40;;;2.08;;
10212;SDS011;5150;51.400;6.692;2022-11-12T15:10:42;4.28;;;2.20;;
10212;SDS011;5150;51.400;6.692;2022-11-12T15:14:26;3.25;;;2.03;;
10212;SDS011;5150;51.400;6.692;2022-11-12T15:18:13;6.15;;;1.92;;
10212;SDS011;5150;51.400;6.692;2022-11-12T15:21:57;2.05;;;1.75;;
10212;SDS011;5150;51.400;6.692;2022-11-12T15:25:40;6.72;;;2.15;;
10212;SDS011;5150;51.400;6.692;2022-11-12T15:29:24;2.88;;;1.52;;
10212;SDS011;5150;51.400;6.692;2022-11-12T15:33:15;2.80;;;1.55;;
10212;SDS011;5150;51.400;6.692;2022-11-12T15:37:02;5.25;;;1.80;;
10212;SDS011;5150;51.400;6.692;2022-11-12T15:40:45;2.22;;;1.50;;
10212;SDS011;5150;51.400;6.692;2022-11-12T15:44:37;1.92;;;1.58;;
10212;SDS011;5150;51.400;6.692;2022-11-12T15:48:19;4.65;;;1.98;;
10212;SDS011;5150;51.400;6.692;2022-11-12T15:52:01;1.83;;;1.38;;
10212;SDS011;5150;51.400;6.692;2022-11-12T15:55:42;1.55;;;1.45;;
10212;SDS011;5150;51.400;6.692;2022-11-12T15:59:24;1.98;;;1.70;;
10212;SDS011;5150;51.400;6.692;2022-11-12T16:03:11;1.73;;;1.60;;
10212;SDS011;5150;51.400;6.692;2022-11-12T16:06:55;1.38;;;1.35;;
10212;SDS011;5150;51.400;6.692;2022-11-12T16:10:36;3.92;;;1.60;;
10212;SDS011;5150;51.400;6.692;2022-11-12T16:14:18;1.98;;;1.60;;
10212;SDS011;5150;51.400;6.692;2022-11-12T16:18:04;3.67;;;1.33;;
10212;SDS011;5150;51.400;6.692;2022-11-12T16:21:47;3.28;;;1.23;;
10212;SDS011;5150;51.400;6.692;2022-11-12T16:25:29;5.40;;;2.55;;
10212;SDS011;5150;51.400;6.692;2022-11-12T16:29:12;3.50;;;1.60;;
10212;SDS011;5150;51.400;6.692;2022-11-12T16:32:55;1.45;;;1.33;;
10212;SDS011;5150;51.400;6.692;2022-11-12T16:36:37;1.88;;;1.40;;
10212;SDS011;5150;51.400;6.692;2022-11-12T16:40:21;1.60;;;1.48;;
10212;SDS011;5150;51.400;6.692;2022-11-12T16:44:04;3.45;;;2.03;;
10212;SDS011;5150;51.400;6.692;2022-11-12T16:47:46;1.83;;;1.73;;
10212;SDS011;5150;51.400;6.692;2022-11-12T16:51:28;4.45;;;1.85;;
10212;SDS011;5150;51.400;6.692;2022-11-12T16:55:10;2.28;;;1.70;;
10212;SDS011;5150;51.400;6.692;2022-11-12T16:58:52;3.40;;;1.70;;
10212;SDS011;5150;51.400;6.692;2022-11-12T17:02:34;2.35;;;1.80;;
10212;SDS011;5150;51.400;6.692;2022-11-12T17:06:30;6.03;;;1.58;;
10212;SDS011;5150;51.400;6.692;2022-11-12T17:10:13;1.65;;;1.50;;
10212;SDS011;5150;51.400;6.692;2022-11-12T17:13:56;1.90;;;1.58;;
10212;SDS011;5150;51.400;6.692;2022-11-12T17:17:39;2.50;;;1.45;;
10212;SDS011;5150;51.400;6.692;2022-11-12T17:21:20;2.60;;;2.17;;
10212;SDS011;5150;51.400;6.692;2022-11-12T17:25:03;7.88;;;2.42;;
10212;SDS011;5150;51.400;6.692;2022-11-12T17:28:46;1.73;;;1.45;;
10212;SDS011;5150;51.400;6.692;2022-11-12T17:32:36;4.00;;;1.77;;
10212;SDS011;5150;51.400;6.692;2022-11-12T17:36:18;3.85;;;1.77;;
10212;SDS011;5150;51.400;6.692;2022-11-12T17:40:01;4.45;;;1.80;;
10212;SDS011;5150;51.400;6.692;2022-11-12T17:43:42;1.85;;;1.73;;
10212;SDS011;5150;51.400;6.692;2022-11-12T17:47:24;4.20;;;2.10;;
10212;SDS011;5150;51.400;6.692;2022-11-12T17:51:09;3.97;;;2.40;;
10212;SDS011;5150;51.400;6.692;2022-11-12T17:54:52;2.83;;;1.77;;
10212;SDS011;5150;51.400;6.692;2022-11-12T17:58:33;1.90;;;1.58;;
10212;SDS011;5150;51.400;6.692;2022-11-12T18:02:14;5.80;;;2.65;;
10212;SDS011;5150;51.400;6.692;2022-11-12T18:05:56;3.65;;;1.85;;
10212;SDS011;5150;51.400;6.692;2022-11-12T18:09:40;6.25;;;1.92;;
10212;SDS011;5150;51.400;6.692;2022-11-12T18:13:21;3.65;;;2.10;;
10212;SDS011;5150;51.400;6.692;2022-11-12T18:17:03;4.70;;;2.35;;
10212;SDS011;5150;51.400;6.692;2022-11-12T18:20:45;7.40;;;1.90;;
10212;SDS011;5150;51.400;6.692;2022-11-12T18:24:26;2.95;;;2.20;;
10212;SDS011;5150;51.400;6.692;2022-11-12T18:28:09;2.58;;;1.83;;
10212;SDS011;5150;51.400;6.692;2022-11-12T18:31:51;4.95;;;1.98;;
10212;SDS011;5150;51.400;6.692;2022-11-12T18:35:32;6.55;;;2.40;;
10212;SDS011;5150;51.400;6.692;2022-11-12T18:39:14;4.70;;;2.03;;
10212;SDS011;5150;51.400;6.692;2022-11-12T18:42:55;2.53;;;2.13;;
10212;SDS011;5150;51.400;6.692;2022-11-12T18:46:38;5.18;;;2.17;;
10212;SDS011;5150;51.400;6.692;2022-11-12T18:50:19;2.65;;;1.80;;
10212;SDS011;5150;51.400;6.692;2022-11-12T18:54:00;3.63;;;2.03;;
10212;SDS011;5150;51.400;6.692;2022-11-12T18:57:42;3.20;;;1.98;;
10212;SDS011;5150;51.400;6.692;2022-11-12T19:01:24;2.60;;;1.60;;
10212;SDS011;5150;51.400;6.692;2022-11-12T19:05:07;4.75;;;2.35;;
10212;SDS011;5150;51.400;6.692;2022-11-12T19:08:49;3.60;;;1.75;;
10212;SDS011;5150;51.400;6.692;2022-11-12T19:12:30;2.63;;;1.75;;
10212;SDS011;5150;51.400;6.692;2022-11-12T19:16:14;4.43;;;2.10;;
10212;SDS011;5150;51.400;6.692;2022-11-12T19:19:56;4.50;;;1.98;;
10212;SDS011;5150;51.400;6.692;2022-11-12T19:23:39;4.38;;;2.15;;
10212;SDS011;5150;51.400;6.692;2022-11-12T19:27:21;5.78;;;2.17;;
10212;SDS011;5150;51.400;6.692;2022-11-12T19:31:03;2.42;;;1.90;;
10212;SDS011;5150;51.400;6.692;2022-11-12T19:34:46;2.22;;;2.03;;
10212;SDS011;5150;51.400;6.692;2022-11-12T19:38:27;4.30;;;2.22;;
10212;SDS011;5150;51.400;6.692;2022-11-12T19:42:11;2.35;;;2.15;;
10212;SDS011;5150;51.400;6.692;2022-11-12T19:45:52;4.10;;;2.20;;
10212;SDS011;5150;51.400;6.692;2022-11-12T19:49:34;1.92;;;1.83;;
10212;SDS011;5150;51.400;6.692;2022-11-12T19:53:15;2.65;;;1.60;;
10212;SDS011;5150;51.400;6.692;2022-11-12T19:56:57;2.28;;;1.58;;
10212;SDS011;5150;51.400;6.692;2022-11-12T20:00:40;2.47;;;1.75;;
10212;SDS011;5150;51.400;6.692;2022-11-12T20:04:21;3.50;;;2.38;;
10212;SDS011;5150;51.400;6.692;2022-11-12T20:08:03;2.92;;;2.15;;
10212;SDS011;5150;51.400;6.692;2022-11-12T20:11:45;2.45;;;2.25;;
10212;SDS011;5150;51.400;6.692;2022-11-12T20:15:26;2.50;;;2.30;;
10212;SDS011;5150;51.400;6.692;2022-11-12T20:19:09;6.75;;;2.28;;
10212;SDS011;5150;51.400;6.692;2022-11-12T20:22:51;3.88;;;2.53;;
10212;SDS011;5150;51.400;6.692;2022-11-12T20:26:32;5.28;;;2.47;;
10212;SDS011;5150;51.400;6.692;2022-11-12T20:30:13;3.42;;;2.55;;
10212;SDS011;5150;51.400;6.692;2022-11-12T20:33:55;2.30;;;2.13;;
10212;SDS011;5150;51.400;6.692;2022-11-12T20:37:38;5.95;;;3.15;;
10212;SDS011;5150;51.400;6.692;2022-11-12T20:41:20;6.50;;;2.65;;
10212;SDS011;5150;51.400;6.692;2022-11-12T20:45:03;8.10;;;2.85;;
10212;SDS011;5150;51.400;6.692;2022-11-12T20:48:45;4.63;;;2.72;;
10212;SDS011;5150;51.400;6.692;2022-11-12T20:52:26;6.80;;;2.90;;
10212;SDS011;5150;51.400;6.692;2022-11-12T20:56:10;2.50;;;2.30;;
10212;SDS011;5150;51.400;6.692;2022-11-12T20:59:53;5.25;;;3.28;;
10212;SDS011;5150;51.400;6.692;2022-11-12T21:03:35;3.03;;;2.67;;
10212;SDS011;5150;51.400;6.692;2022-11-12T21:07:18;3.08;;;2.72;;
10212;SDS011;5150;51.400;6.692;2022-11-12T21:11:00;4.30;;;2.90;;
10212;SDS011;5150;51.400;6.692;2022-11-12T21:14:44;5.47;;;2.83;;
10212;SDS011;5150;51.400;6.692;2022-11-12T21:18:29;4.65;;;2.55;;
10212;SDS011;5150;51.400;6.692;2022-11-12T21:22:11;3.08;;;2.78;;
10212;SDS011;5150;51.400;6.692;2022-11-12T21:25:54;7.57;;;3.75;;
10212;SDS011;5150;51.400;6.692;2022-11-12T21:29:35;3.55;;;3.10;;
10212;SDS011;5150;51.400;6.692;2022-11-12T21:33:18;7.53;;;3.55;;
10212;SDS011;5150;51.400;6.692;2022-11-12T21:37:00;3.25;;;2.80;;
10212;SDS011;5150;51.400;6.692;2022-11-12T21:40:41;5.32;;;2.88;;
10212;SDS011;5150;51.400;6.692;2022-11-12T21:44:23;3.00;;;2.75;;
10212;SDS011;5150;51.400;6.692;2022-11-12T21:48:04;4.70;;;3.50;;
10212;SDS011;5150;51.400;6.692;2022-11-12T21:51:47;6.20;;;4.05;;
10212;SDS011;5150;51.400;6.692;2022-11-12T21:55:28;4.60;;;3.65;;
10212;SDS011;5150;51.400;6.692;2022-11-12T21:59:10;5.95;;;2.95;;
10212;SDS011;5150;51.400;6.692;2022-11-12T22:02:52;4.90;;;2.88;;
10212;SDS011;5150;51.400;6.692;2022-11-12T22:06:35;8.07;;;4.07;;
10212;SDS011;5150;51.400;6.692;2022-11-12T22:10:19;5.38;;;3.35;;
10212;SDS011;5150;51.400;6.692;2022-11-12T22:14:00;4.93;;;3.35;;
10212;SDS011;5150;51.400;6.692;2022-11-12T22:17:42;3.08;;;2.78;;
10212;SDS011;5150;51.400;6.692;2022-11-12T22:21:24;8.55;;;4.10;;
10212;SDS011;5150;51.400;6.692;2022-11-12T22:25:07;3.95;;;3.42;;
10212;SDS011;5150;51.400;6.692;2022-11-12T22:28:50;6.18;;;3.85;;
10212;SDS011;5150;51.400;6.692;2022-11-12T22:32:32;3.90;;;3.10;;
10212;SDS011;5150;51.400;6.692;2022-11-12T22:36:14;7.78;;;3.88;;
10212;SDS011;5150;51.400;6.692;2022-11-12T22:39:56;4.30;;;3.90;;
10212;SDS011;5150;51.400;6.692;2022-11-12T22:43:38;5.65;;;3.70;;
10212;SDS011;5150;51.400;6.692;2022-11-12T22:47:21;6.63;;;3.63;;
10212;SDS011;5150;51.400;6.692;2022-11-12T22:51:03;3.53;;;3.15;;
10212;SDS011;5150;51.400;6.692;2022-11-12T22:54:46;3.58;;;3.15;;
10212;SDS011;5150;51.400;6.692;2022-11-12T22:58:27;6.95;;;3.55;;
10212;SDS011;5150;51.400;6.692;2022-11-12T23:02:09;4.53;;;3.75;;
10212;SDS011;5150;51.400;6.692;2022-11-12T23:05:56;5.65;;;4.05;;
10212;SDS011;5150;51.400;6.692;2022-11-12T23:09:38;6.82;;;3.63;;
10212;SDS011;5150;51.400;6.692;2022-11-12T23:13:20;7.93;;;4.28;;
10212;SDS011;5150;51.400;6.692;2022-11-12T23:17:03;4.97;;;3.85;;